Portada
METAR-TAF:

METAR-TAF

Aeroports :

Lihue, Hawaii, Estats Units d'Amèrica

latitud: 21-59-02N, longitud: 159-20-28W, altitud: 45 m

Observació

L'informe es va fer fa 34 minuts, a les 11:53 UTC
Vent 6 kt del Est
Temperatura 23°C
Humitat 83%
Pressió 1019 hPa
Visibilitat: 16.1 km
Núvols disperses a una alçada de 2000 ft
Núvols disperses a una alçada de 2700 ft

METAR: PHLI 251153Z AUTO 08006KT 10SM SCT020 SCT027 23/20 A3008 RMK AO2 SLP184 T02330200 10244 20233 58013 TSNO

Hora: 02:27 (12:27 UTC)

Pronòstic

L'informe es va fer fa 52 minuts, a les 11:35 UTC
Pronòstic vàlid del 25 a les 12 UTC al 26 a les 12 UTC
Vent 7 kt del Est/Nord-Est
Visibilitat: 10 km
Escasses núvols a una alçada de 2500 ft
Núvols disperses a una alçada de 4500 ft
Temporalment
l' 25 a les 13 UTC al 25 a les 15 UTC
Cel ennuvolat a una alçada de 1500 ft

TAF: PHLI 251135Z 2512/2612 07007KT P6SM FEW025 SCT045 TEMPO 2513/2515 BKN015

Observacions i pronòstics meteorològics de més de 4000 aeroports (METAR i TAF).

Les estacions disponibles són els punts grocs i vermells al mapa.

Posi el ratolí al punt desitjat per veure el nom de l'estació.

Feu clic per veure les observacions i els pronòstics meteorològics.

Per canviar el mapa: feu clic els botons verds amb una creu de color negre per apropar; al botó verd amb un guió per allunyar la imatge; o en les fletxes verdes per a mapes adjacents.


METAR-TAF: